sensor_id;sensor_type;location;lat;lon;timestamp;temperature;humidity
21602;DHT22;10963;50.934;4.668;2022-09-21T00:00:48;10.40;99.90
21602;DHT22;10963;50.934;4.668;2022-09-21T00:03:14;10.40;99.90
21602;DHT22;10963;50.934;4.668;2022-09-21T00:05:42;10.40;99.90
21602;DHT22;10963;50.934;4.668;2022-09-21T00:08:13;10.30;99.90
21602;DHT22;10963;50.934;4.668;2022-09-21T00:10:41;10.30;99.90
21602;DHT22;10963;50.934;4.668;2022-09-21T00:13:10;10.20;99.90
21602;DHT22;10963;50.934;4.668;2022-09-21T00:15:39;10.20;99.90
21602;DHT22;10963;50.934;4.668;2022-09-21T00:18:05;10.10;99.90
21602;DHT22;10963;50.934;4.668;2022-09-21T00:20:33;10.10;99.90
21602;DHT22;10963;50.934;4.668;2022-09-21T00:23:01;10.20;99.90
21602;DHT22;10963;50.934;4.668;2022-09-21T00:25:27;10.10;99.90
21602;DHT22;10963;50.934;4.668;2022-09-21T00:27:56;10.10;99.90
21602;DHT22;10963;50.934;4.668;2022-09-21T00:30:27;10.10;99.90
21602;DHT22;10963;50.934;4.668;2022-09-21T00:32:57;10.00;99.90
21602;DHT22;10963;50.934;4.668;2022-09-21T00:35:26;10.00;99.90
21602;DHT22;10963;50.934;4.668;2022-09-21T00:37:52;10.00;99.90
21602;DHT22;10963;50.934;4.668;2022-09-21T00:40:23;10.00;99.90
21602;DHT22;10963;50.934;4.668;2022-09-21T00:42:51;10.10;99.90
21602;DHT22;10963;50.934;4.668;2022-09-21T00:45:19;10.10;99.90
21602;DHT22;10963;50.934;4.668;2022-09-21T00:47:52;10.00;99.90
21602;DHT22;10963;50.934;4.668;2022-09-21T00:50:21;10.00;99.90
21602;DHT22;10963;50.934;4.668;2022-09-21T00:52:55;9.80;99.90
21602;DHT22;10963;50.934;4.668;2022-09-21T00:55:33;9.80;99.90
21602;DHT22;10963;50.934;4.668;2022-09-21T00:58:06;9.80;99.90
21602;DHT22;10963;50.934;4.668;2022-09-21T01:00:35;9.80;99.90
21602;DHT22;10963;50.934;4.668;2022-09-21T01:03:03;9.80;99.90
21602;DHT22;10963;50.934;4.668;2022-09-21T01:05:31;9.70;99.90
21602;DHT22;10963;50.934;4.668;2022-09-21T01:08:03;9.80;99.90
21602;DHT22;10963;50.934;4.668;2022-09-21T01:22:09;9.70;99.90
21602;DHT22;10963;50.934;4.668;2022-09-21T01:27:57;9.60;99.90
21602;DHT22;10963;50.934;4.668;2022-09-21T01:30:29;9.50;99.90
21602;DHT22;10963;50.934;4.668;2022-09-21T01:33:26;9.50;99.90
21602;DHT22;10963;50.934;4.668;2022-09-21T01:36:02;9.40;99.90
21602;DHT22;10963;50.934;4.668;2022-09-21T01:38:41;9.40;99.90
21602;DHT22;10963;50.934;4.668;2022-09-21T01:41:11;9.50;99.90
21602;DHT22;10963;50.934;4.668;2022-09-21T01:43:50;9.50;99.90
21602;DHT22;10963;50.934;4.668;2022-09-21T01:46:20;9.50;99.90
21602;DHT22;10963;50.934;4.668;2022-09-21T01:48:55;9.50;99.90
21602;DHT22;10963;50.934;4.668;2022-09-21T01:51:25;9.50;99.90
21602;DHT22;10963;50.934;4.668;2022-09-21T01:54:01;9.50;99.90
21602;DHT22;10963;50.934;4.668;2022-09-21T01:56:36;9.60;99.90
21602;DHT22;10963;50.934;4.668;2022-09-21T01:59:11;9.40;99.90
21602;DHT22;10963;50.934;4.668;2022-09-21T02:01:44;9.40;99.90
21602;DHT22;10963;50.934;4.668;2022-09-21T02:04:11;9.30;99.90
21602;DHT22;10963;50.934;4.668;2022-09-21T02:06:42;9.30;99.90
21602;DHT22;10963;50.934;4.668;2022-09-21T02:09:12;9.30;99.90
21602;DHT22;10963;50.934;4.668;2022-09-21T02:11:43;9.30;99.90
21602;DHT22;10963;50.934;4.668;2022-09-21T02:14:11;9.30;99.90
21602;DHT22;10963;50.934;4.668;2022-09-21T02:20:25;9.30;99.90
21602;DHT22;10963;50.934;4.668;2022-09-21T02:23:10;9.20;99.90
21602;DHT22;10963;50.934;4.668;2022-09-21T02:25:54;9.20;99.90
21602;DHT22;10963;50.934;4.668;2022-09-21T02:29:01;9.10;99.90
21602;DHT22;10963;50.934;4.668;2022-09-21T02:31:37;9.10;99.90
21602;DHT22;10963;50.934;4.668;2022-09-21T02:34:24;9.10;99.90
21602;DHT22;10963;50.934;4.668;2022-09-21T02:39:51;9.10;99.90
21602;DHT22;10963;50.934;4.668;2022-09-21T02:42:27;9.00;99.90
21602;DHT22;10963;50.934;4.668;2022-09-21T02:45:06;8.90;99.90
21602;DHT22;10963;50.934;4.668;2022-09-21T02:47:47;9.00;99.90
21602;DHT22;10963;50.934;4.668;2022-09-21T02:50:28;9.00;99.90
21602;DHT22;10963;50.934;4.668;2022-09-21T02:52:58;8.90;99.90
21602;DHT22;10963;50.934;4.668;2022-09-21T02:55:25;8.80;99.90
21602;DHT22;10963;50.934;4.668;2022-09-21T02:57:52;8.90;99.90
21602;DHT22;10963;50.934;4.668;2022-09-21T03:00:20;8.90;99.90
21602;DHT22;10963;50.934;4.668;2022-09-21T03:02:46;8.80;99.90
21602;DHT22;10963;50.934;4.668;2022-09-21T03:05:14;8.70;99.90
21602;DHT22;10963;50.934;4.668;2022-09-21T03:07:44;8.70;99.90
21602;DHT22;10963;50.934;4.668;2022-09-21T03:10:12;8.80;99.90
21602;DHT22;10963;50.934;4.668;2022-09-21T03:12:38;8.90;99.90
21602;DHT22;10963;50.934;4.668;2022-09-21T03:15:04;8.90;99.90
21602;DHT22;10963;50.934;4.668;2022-09-21T03:17:30;8.90;99.90
21602;DHT22;10963;50.934;4.668;2022-09-21T03:19:58;8.90;99.90
21602;DHT22;10963;50.934;4.668;2022-09-21T03:22:29;8.90;99.90
21602;DHT22;10963;50.934;4.668;2022-09-21T03:24:56;8.90;99.90
21602;DHT22;10963;50.934;4.668;2022-09-21T03:27:24;8.90;99.90
21602;DHT22;10963;50.934;4.668;2022-09-21T03:29:50;8.80;99.90
21602;DHT22;10963;50.934;4.668;2022-09-21T03:32:17;8.60;99.90
21602;DHT22;10963;50.934;4.668;2022-09-21T03:34:42;8.60;99.90
21602;DHT22;10963;50.934;4.668;2022-09-21T03:37:09;8.50;99.90
21602;DHT22;10963;50.934;4.668;2022-09-21T03:39:40;8.40;99.90
21602;DHT22;10963;50.934;4.668;2022-09-21T03:42:08;8.40;99.90
21602;DHT22;10963;50.934;4.668;2022-09-21T03:44:36;8.50;99.90
21602;DHT22;10963;50.934;4.668;2022-09-21T03:47:02;8.40;99.90
21602;DHT22;10963;50.934;4.668;2022-09-21T03:49:33;8.40;99.90
21602;DHT22;10963;50.934;4.668;2022-09-21T03:52:02;8.40;99.90
21602;DHT22;10963;50.934;4.668;2022-09-21T03:54:28;8.40;99.90
21602;DHT22;10963;50.934;4.668;2022-09-21T03:56:54;8.40;99.90
21602;DHT22;10963;50.934;4.668;2022-09-21T03:59:22;8.40;99.90
21602;DHT22;10963;50.934;4.668;2022-09-21T04:01:48;8.50;99.90
21602;DHT22;10963;50.934;4.668;2022-09-21T04:04:16;8.40;99.90
21602;DHT22;10963;50.934;4.668;2022-09-21T04:06:42;8.40;99.90
21602;DHT22;10963;50.934;4.668;2022-09-21T04:09:10;8.50;99.90
21602;DHT22;10963;50.934;4.668;2022-09-21T04:11:38;8.50;99.90
21602;DHT22;10963;50.934;4.668;2022-09-21T04:14:04;8.50;99.90
21602;DHT22;10963;50.934;4.668;2022-09-21T04:16:32;8.50;99.90
21602;DHT22;10963;50.934;4.668;2022-09-21T04:18:58;8.60;99.90
21602;DHT22;10963;50.934;4.668;2022-09-21T04:21:24;8.50;99.90
21602;DHT22;10963;50.934;4.668;2022-09-21T04:23:54;8.50;99.90
21602;DHT22;10963;50.934;4.668;2022-09-21T04:26:28;8.50;99.90
21602;DHT22;10963;50.934;4.668;2022-09-21T04:28:55;8.50;99.90
21602;DHT22;10963;50.934;4.668;2022-09-21T04:31:22;8.50;99.90
21602;DHT22;10963;50.934;4.668;2022-09-21T04:33:50;8.50;99.90
21602;DHT22;10963;50.934;4.668;2022-09-21T04:36:20;8.50;99.90
21602;DHT22;10963;50.934;4.668;2022-09-21T04:38:47;8.50;99.90
21602;DHT22;10963;50.934;4.668;2022-09-21T04:41:14;8.50;99.90
21602;DHT22;10963;50.934;4.668;2022-09-21T04:43:44;8.50;99.90
21602;DHT22;10963;50.934;4.668;2022-09-21T04:46:21;8.50;99.90
21602;DHT22;10963;50.934;4.668;2022-09-21T04:48:50;8.50;99.90
21602;DHT22;10963;50.934;4.668;2022-09-21T04:51:18;8.50;99.90
21602;DHT22;10963;50.934;4.668;2022-09-21T04:53:44;8.60;99.90
21602;DHT22;10963;50.934;4.668;2022-09-21T04:56:13;8.60;99.90
21602;DHT22;10963;50.934;4.668;2022-09-21T04:58:42;8.60;99.90
21602;DHT22;10963;50.934;4.668;2022-09-21T05:01:12;8.60;99.90
21602;DHT22;10963;50.934;4.668;2022-09-21T05:03:38;8.60;99.90
21602;DHT22;10963;50.934;4.668;2022-09-21T05:06:04;8.60;99.90
21602;DHT22;10963;50.934;4.668;2022-09-21T05:08:31;8.60;99.90
21602;DHT22;10963;50.934;4.668;2022-09-21T05:11:17;8.50;99.90
21602;DHT22;10963;50.934;4.668;2022-09-21T05:13:46;8.40;99.90
21602;DHT22;10963;50.934;4.668;2022-09-21T05:16:13;8.40;99.90
21602;DHT22;10963;50.934;4.668;2022-09-21T05:18:39;8.30;99.90
21602;DHT22;10963;50.934;4.668;2022-09-21T05:21:08;8.30;99.90
21602;DHT22;10963;50.934;4.668;2022-09-21T05:23:34;8.30;99.90
21602;DHT22;10963;50.934;4.668;2022-09-21T05:26:00;8.40;99.90
21602;DHT22;10963;50.934;4.668;2022-09-21T05:28:28;8.50;99.90
21602;DHT22;10963;50.934;4.668;2022-09-21T05:33:49;8.50;99.90
21602;DHT22;10963;50.934;4.668;2022-09-21T05:38:53;8.10;99.90
21602;DHT22;10963;50.934;4.668;2022-09-21T05:41:21;8.20;99.90
21602;DHT22;10963;50.934;4.668;2022-09-21T05:43:51;8.30;99.90
21602;DHT22;10963;50.934;4.668;2022-09-21T05:46:23;8.20;99.90
21602;DHT22;10963;50.934;4.668;2022-09-21T05:49:02;8.30;99.90
21602;DHT22;10963;50.934;4.668;2022-09-21T05:57:12;8.40;99.90
21602;DHT22;10963;50.934;4.668;2022-09-21T06:00:28;8.60;99.90
21602;DHT22;10963;50.934;4.668;2022-09-21T06:05:34;8.70;99.90
21602;DHT22;10963;50.934;4.668;2022-09-21T06:08:04;8.80;99.90
21602;DHT22;10963;50.934;4.668;2022-09-21T06:10:35;8.90;99.90
21602;DHT22;10963;50.934;4.668;2022-09-21T06:13:00;8.90;99.90
21602;DHT22;10963;50.934;4.668;2022-09-21T06:15:27;8.90;99.90
21602;DHT22;10963;50.934;4.668;2022-09-21T06:17:53;9.00;99.90
21602;DHT22;10963;50.934;4.668;2022-09-21T06:20:23;9.10;99.90
21602;DHT22;10963;50.934;4.668;2022-09-21T06:22:51;9.10;99.90
21602;DHT22;10963;50.934;4.668;2022-09-21T06:25:19;9.20;99.90
21602;DHT22;10963;50.934;4.668;2022-09-21T06:27:45;9.30;99.90
21602;DHT22;10963;50.934;4.668;2022-09-21T06:30:11;9.40;99.90
21602;DHT22;10963;50.934;4.668;2022-09-21T06:32:39;9.50;99.90
21602;DHT22;10963;50.934;4.668;2022-09-21T06:35:05;9.50;99.90
21602;DHT22;10963;50.934;4.668;2022-09-21T06:37:33;9.60;99.90
21602;DHT22;10963;50.934;4.668;2022-09-21T06:40:05;9.60;99.90
21602;DHT22;10963;50.934;4.668;2022-09-21T06:42:34;9.70;99.90
21602;DHT22;10963;50.934;4.668;2022-09-21T06:45:02;9.70;99.90
21602;DHT22;10963;50.934;4.668;2022-09-21T06:47:31;9.70;99.90
21602;DHT22;10963;50.934;4.668;2022-09-21T06:49:59;9.60;99.90
21602;DHT22;10963;50.934;4.668;2022-09-21T06:52:27;9.60;99.90
21602;DHT22;10963;50.934;4.668;2022-09-21T06:54:53;9.70;99.90
21602;DHT22;10963;50.934;4.668;2022-09-21T06:57:19;9.80;99.90
21602;DHT22;10963;50.934;4.668;2022-09-21T06:59:45;9.80;99.90
21602;DHT22;10963;50.934;4.668;2022-09-21T07:02:13;10.00;99.90
21602;DHT22;10963;50.934;4.668;2022-09-21T07:04:41;10.10;99.90
21602;DHT22;10963;50.934;4.668;2022-09-21T07:07:07;10.10;99.90
21602;DHT22;10963;50.934;4.668;2022-09-21T07:09:33;10.10;99.90
21602;DHT22;10963;50.934;4.668;2022-09-21T07:11:59;10.20;99.90
21602;DHT22;10963;50.934;4.668;2022-09-21T07:14:27;10.40;99.90
21602;DHT22;10963;50.934;4.668;2022-09-21T07:16:52;10.50;99.90
21602;DHT22;10963;50.934;4.668;2022-09-21T07:19:20;10.70;99.90
21602;DHT22;10963;50.934;4.668;2022-09-21T07:21:46;10.80;99.90
21602;DHT22;10963;50.934;4.668;2022-09-21T07:24:14;10.80;99.90
21602;DHT22;10963;50.934;4.668;2022-09-21T07:26:42;10.90;99.90
21602;DHT22;10963;50.934;4.668;2022-09-21T07:29:11;11.10;99.90
21602;DHT22;10963;50.934;4.668;2022-09-21T07:31:37;11.20;99.90
21602;DHT22;10963;50.934;4.668;2022-09-21T07:34:05;11.30;99.90
21602;DHT22;10963;50.934;4.668;2022-09-21T07:36:31;11.60;99.90
21602;DHT22;10963;50.934;4.668;2022-09-21T07:38:59;11.70;99.90
21602;DHT22;10963;50.934;4.668;2022-09-21T07:41:27;11.80;99.90
21602;DHT22;10963;50.934;4.668;2022-09-21T07:43:53;12.20;99.90
21602;DHT22;10963;50.934;4.668;2022-09-21T07:46:21;12.50;99.90
21602;DHT22;10963;50.934;4.668;2022-09-21T07:48:51;12.50;99.90
21602;DHT22;10963;50.934;4.668;2022-09-21T07:51:22;12.70;99.90
21602;DHT22;10963;50.934;4.668;2022-09-21T07:53:55;12.70;99.90
21602;DHT22;10963;50.934;4.668;2022-09-21T07:56:21;12.50;99.90
21602;DHT22;10963;50.934;4.668;2022-09-21T07:58:48;12.40;99.90
21602;DHT22;10963;50.934;4.668;2022-09-21T08:01:33;12.50;99.90
21602;DHT22;10963;50.934;4.668;2022-09-21T08:04:04;12.60;99.90
21602;DHT22;10963;50.934;4.668;2022-09-21T08:06:31;12.70;99.90
21602;DHT22;10963;50.934;4.668;2022-09-21T08:09:03;13.00;99.90
21602;DHT22;10963;50.934;4.668;2022-09-21T08:11:30;13.00;99.90
21602;DHT22;10963;50.934;4.668;2022-09-21T08:13:59;12.90;99.90
21602;DHT22;10963;50.934;4.668;2022-09-21T08:16:28;12.90;99.90
21602;DHT22;10963;50.934;4.668;2022-09-21T08:18:56;13.00;99.90
21602;DHT22;10963;50.934;4.668;2022-09-21T08:21:22;13.20;99.90
21602;DHT22;10963;50.934;4.668;2022-09-21T08:23:48;13.30;99.90
21602;DHT22;10963;50.934;4.668;2022-09-21T08:26:18;13.40;99.90
21602;DHT22;10963;50.934;4.668;2022-09-21T08:28:47;13.60;99.90
21602;DHT22;10963;50.934;4.668;2022-09-21T08:31:17;13.80;99.90
21602;DHT22;10963;50.934;4.668;2022-09-21T08:33:46;13.90;99.90
21602;DHT22;10963;50.934;4.668;2022-09-21T08:36:14;14.20;99.90
21602;DHT22;10963;50.934;4.668;2022-09-21T08:38:42;14.50;99.90
21602;DHT22;10963;50.934;4.668;2022-09-21T08:44:15;14.60;99.90
21602;DHT22;10963;50.934;4.668;2022-09-21T08:46:47;14.50;99.90
21602;DHT22;10963;50.934;4.668;2022-09-21T08:49:21;14.70;99.90
21602;DHT22;10963;50.934;4.668;2022-09-21T08:52:00;14.90;99.90
21602;DHT22;10963;50.934;4.668;2022-09-21T08:54:56;15.00;99.90
21602;DHT22;10963;50.934;4.668;2022-09-21T08:57:24;15.30;99.90
21602;DHT22;10963;50.934;4.668;2022-09-21T08:59:50;15.30;99.90
21602;DHT22;10963;50.934;4.668;2022-09-21T09:13:19;16.00;99.90
21602;DHT22;10963;50.934;4.668;2022-09-21T09:16:04;16.10;99.90
21602;DHT22;10963;50.934;4.668;2022-09-21T09:18:50;16.10;99.90
21602;DHT22;10963;50.934;4.668;2022-09-21T09:21:39;16.10;99.90
21602;DHT22;10963;50.934;4.668;2022-09-21T09:27:23;16.20;99.90
21602;DHT22;10963;50.934;4.668;2022-09-21T09:32:19;16.70;99.90
21602;DHT22;10963;50.934;4.668;2022-09-21T09:35:02;16.60;99.90
21602;DHT22;10963;50.934;4.668;2022-09-21T09:37:32;16.60;99.90
21602;DHT22;10963;50.934;4.668;2022-09-21T09:40:00;16.70;99.90
21602;DHT22;10963;50.934;4.668;2022-09-21T09:48:30;17.00;99.90
21602;DHT22;10963;50.934;4.668;2022-09-21T09:51:02;17.10;99.90
21602;DHT22;10963;50.934;4.668;2022-09-21T09:53:28;17.10;99.90
21602;DHT22;10963;50.934;4.668;2022-09-21T09:55:56;17.40;99.90
21602;DHT22;10963;50.934;4.668;2022-09-21T09:58:27;17.30;99.90
21602;DHT22;10963;50.934;4.668;2022-09-21T10:00:55;17.40;99.90
21602;DHT22;10963;50.934;4.668;2022-09-21T10:03:25;17.40;99.90
21602;DHT22;10963;50.934;4.668;2022-09-21T10:05:51;17.40;99.90
21602;DHT22;10963;50.934;4.668;2022-09-21T10:08:41;17.50;99.90
21602;DHT22;10963;50.934;4.668;2022-09-21T10:11:09;17.60;99.90
21602;DHT22;10963;50.934;4.668;2022-09-21T10:13:37;17.60;99.90
21602;DHT22;10963;50.934;4.668;2022-09-21T10:16:24;17.70;99.90
21602;DHT22;10963;50.934;4.668;2022-09-21T10:18:54;17.90;99.90
21602;DHT22;10963;50.934;4.668;2022-09-21T10:21:37;18.10;99.90
21602;DHT22;10963;50.934;4.668;2022-09-21T10:29:31;18.10;99.90
21602;DHT22;10963;50.934;4.668;2022-09-21T10:32:00;18.10;99.90
21602;DHT22;10963;50.934;4.668;2022-09-21T10:34:31;17.90;99.90
21602;DHT22;10963;50.934;4.668;2022-09-21T10:37:19;17.80;99.90
21602;DHT22;10963;50.934;4.668;2022-09-21T10:39:47;17.70;99.90
21602;DHT22;10963;50.934;4.668;2022-09-21T10:42:15;17.50;99.90
21602;DHT22;10963;50.934;4.668;2022-09-21T10:44:46;17.30;99.90
21602;DHT22;10963;50.934;4.668;2022-09-21T10:47:36;17.30;99.90
21602;DHT22;10963;50.934;4.668;2022-09-21T10:52:57;17.30;99.90
21602;DHT22;10963;50.934;4.668;2022-09-21T10:55:29;17.30;99.90
21602;DHT22;10963;50.934;4.668;2022-09-21T10:57:59;17.40;99.90
21602;DHT22;10963;50.934;4.668;2022-09-21T11:02:57;17.80;99.90
21602;DHT22;10963;50.934;4.668;2022-09-21T11:05:26;17.80;99.90
21602;DHT22;10963;50.934;4.668;2022-09-21T11:08:15;17.90;99.90
21602;DHT22;10963;50.934;4.668;2022-09-21T11:10:52;17.90;99.90
21602;DHT22;10963;50.934;4.668;2022-09-21T11:16:32;18.50;99.90
21602;DHT22;10963;50.934;4.668;2022-09-21T11:19:19;18.90;99.90
21602;DHT22;10963;50.934;4.668;2022-09-21T11:22:03;19.30;99.90
21602;DHT22;10963;50.934;4.668;2022-09-21T11:24:54;19.60;99.90
21602;DHT22;10963;50.934;4.668;2022-09-21T11:27:41;19.80;99.90
21602;DHT22;10963;50.934;4.668;2022-09-21T11:30:10;19.80;99.90
21602;DHT22;10963;50.934;4.668;2022-09-21T11:36:16;19.60;99.90
21602;DHT22;10963;50.934;4.668;2022-09-21T11:41:49;19.30;99.90
21602;DHT22;10963;50.934;4.668;2022-09-21T11:47:15;19.40;99.90
21602;DHT22;10963;50.934;4.668;2022-09-21T11:55:32;19.90;99.90
21602;DHT22;10963;50.934;4.668;2022-09-21T11:59:09;19.90;99.90
21602;DHT22;10963;50.934;4.668;2022-09-21T12:01:12;20.10;99.90
21602;DHT22;10963;50.934;4.668;2022-09-21T12:06:51;20.30;99.90
21602;DHT22;10963;50.934;4.668;2022-09-21T12:09:46;20.20;99.90
21602;DHT22;10963;50.934;4.668;2022-09-21T12:12:36;20.50;99.90
21602;DHT22;10963;50.934;4.668;2022-09-21T12:15:16;20.70;99.70
21602;DHT22;10963;50.934;4.668;2022-09-21T12:17:55;20.80;99.90
21602;DHT22;10963;50.934;4.668;2022-09-21T12:23:10;21.30;99.30
21602;DHT22;10963;50.934;4.668;2022-09-21T12:25:40;21.30;97.10
21602;DHT22;10963;50.934;4.668;2022-09-21T12:28:24;21.50;96.50
21602;DHT22;10963;50.934;4.668;2022-09-21T12:31:14;21.70;94.80
21602;DHT22;10963;50.934;4.668;2022-09-21T12:34:14;21.40;95.90
21602;DHT22;10963;50.934;4.668;2022-09-21T12:39:43;21.10;98.20
21602;DHT22;10963;50.934;4.668;2022-09-21T12:42:27;20.70;99.90
21602;DHT22;10963;50.934;4.668;2022-09-21T12:45:02;20.10;99.90
21602;DHT22;10963;50.934;4.668;2022-09-21T12:50:28;19.80;99.90
21602;DHT22;10963;50.934;4.668;2022-09-21T12:52:59;19.60;99.90
21602;DHT22;10963;50.934;4.668;2022-09-21T13:01:23;19.30;99.90
21602;DHT22;10963;50.934;4.668;2022-09-21T13:07:00;19.30;99.90
21602;DHT22;10963;50.934;4.668;2022-09-21T13:09:32;19.50;99.90
21602;DHT22;10963;50.934;4.668;2022-09-21T13:12:01;19.30;99.90
21602;DHT22;10963;50.934;4.668;2022-09-21T13:14:34;19.10;99.90
21602;DHT22;10963;50.934;4.668;2022-09-21T13:17:03;19.00;99.90
21602;DHT22;10963;50.934;4.668;2022-09-21T13:19:34;19.00;99.90
21602;DHT22;10963;50.934;4.668;2022-09-21T13:22:18;19.20;99.90
21602;DHT22;10963;50.934;4.668;2022-09-21T13:28:01;19.90;99.90
21602;DHT22;10963;50.934;4.668;2022-09-21T13:32:57;20.20;99.90
21602;DHT22;10963;50.934;4.668;2022-09-21T13:51:33;20.80;99.80
21602;DHT22;10963;50.934;4.668;2022-09-21T13:54:01;21.30;97.70
21602;DHT22;10963;50.934;4.668;2022-09-21T13:56:33;21.60;98.60
21602;DHT22;10963;50.934;4.668;2022-09-21T13:59:01;21.50;97.40
21602;DHT22;10963;50.934;4.668;2022-09-21T14:01:34;21.40;98.10
21602;DHT22;10963;50.934;4.668;2022-09-21T14:04:14;21.70;96.50
21602;DHT22;10963;50.934;4.668;2022-09-21T14:06:47;21.60;95.30
21602;DHT22;10963;50.934;4.668;2022-09-21T14:10:15;21.80;94.70
21602;DHT22;10963;50.934;4.668;2022-09-21T14:12:24;22.00;95.00
21602;DHT22;10963;50.934;4.668;2022-09-21T14:15:30;22.40;94.50
21602;DHT22;10963;50.934;4.668;2022-09-21T14:21:07;22.50;95.10
21602;DHT22;10963;50.934;4.668;2022-09-21T14:23:35;22.40;94.70
21602;DHT22;10963;50.934;4.668;2022-09-21T14:26:19;22.10;94.70
21602;DHT22;10963;50.934;4.668;2022-09-21T14:28:56;21.60;95.20
21602;DHT22;10963;50.934;4.668;2022-09-21T14:31:30;21.30;95.40
21602;DHT22;10963;50.934;4.668;2022-09-21T14:34:02;20.90;96.20
21602;DHT22;10963;50.934;4.668;2022-09-21T14:36:36;20.60;97.00
21602;DHT22;10963;50.934;4.668;2022-09-21T14:39:20;20.10;98.10
21602;DHT22;10963;50.934;4.668;2022-09-21T14:41:52;19.70;98.50
21602;DHT22;10963;50.934;4.668;2022-09-21T14:44:23;19.70;99.10
21602;DHT22;10963;50.934;4.668;2022-09-21T14:55:26;19.10;99.90
21602;DHT22;10963;50.934;4.668;2022-09-21T15:00:44;19.10;99.90
21602;DHT22;10963;50.934;4.668;2022-09-21T15:06:30;19.10;99.90
21602;DHT22;10963;50.934;4.668;2022-09-21T15:09:38;19.20;99.90
21602;DHT22;10963;50.934;4.668;2022-09-21T15:17:59;19.20;99.90
21602;DHT22;10963;50.934;4.668;2022-09-21T15:20:28;19.10;99.90
21602;DHT22;10963;50.934;4.668;2022-09-21T15:22:56;18.90;99.90
21602;DHT22;10963;50.934;4.668;2022-09-21T15:25:26;18.80;99.90
21602;DHT22;10963;50.934;4.668;2022-09-21T15:27:56;19.00;99.90
21602;DHT22;10963;50.934;4.668;2022-09-21T15:30:26;19.10;99.90
21602;DHT22;10963;50.934;4.668;2022-09-21T15:32:57;19.40;99.50
21602;DHT22;10963;50.934;4.668;2022-09-21T15:35:31;19.40;98.70
21602;DHT22;10963;50.934;4.668;2022-09-21T15:38:00;19.50;98.70
21602;DHT22;10963;50.934;4.668;2022-09-21T15:40:35;19.40;97.60
21602;DHT22;10963;50.934;4.668;2022-09-21T15:45:57;19.70;96.80
21602;DHT22;10963;50.934;4.668;2022-09-21T15:48:36;19.90;96.00
21602;DHT22;10963;50.934;4.668;2022-09-21T15:54:14;20.10;96.00
21602;DHT22;10963;50.934;4.668;2022-09-21T15:56:44;20.10;96.00
21602;DHT22;10963;50.934;4.668;2022-09-21T15:59:18;20.30;96.10
21602;DHT22;10963;50.934;4.668;2022-09-21T16:01:53;20.40;95.80
21602;DHT22;10963;50.934;4.668;2022-09-21T16:04:22;20.40;96.30
21602;DHT22;10963;50.934;4.668;2022-09-21T16:07:03;20.50;95.10
21602;DHT22;10963;50.934;4.668;2022-09-21T16:09:45;20.60;94.40
21602;DHT22;10963;50.934;4.668;2022-09-21T16:15:14;20.40;94.90
21602;DHT22;10963;50.934;4.668;2022-09-21T16:17:59;20.40;94.50
21602;DHT22;10963;50.934;4.668;2022-09-21T16:20:47;20.40;94.50
21602;DHT22;10963;50.934;4.668;2022-09-21T16:23:22;20.20;95.50
21602;DHT22;10963;50.934;4.668;2022-09-21T16:25:58;20.00;96.80
21602;DHT22;10963;50.934;4.668;2022-09-21T16:28:41;19.70;97.10
21602;DHT22;10963;50.934;4.668;2022-09-21T16:31:39;19.50;97.60
21602;DHT22;10963;50.934;4.668;2022-09-21T16:34:30;19.20;97.60
21602;DHT22;10963;50.934;4.668;2022-09-21T16:39:45;19.00;99.40
21602;DHT22;10963;50.934;4.668;2022-09-21T16:42:12;19.00;99.90
21602;DHT22;10963;50.934;4.668;2022-09-21T16:44:38;18.90;99.90
21602;DHT22;10963;50.934;4.668;2022-09-21T16:47:17;18.80;99.90
21602;DHT22;10963;50.934;4.668;2022-09-21T16:49:50;18.60;99.90
21602;DHT22;10963;50.934;4.668;2022-09-21T16:52:24;18.50;99.90
21602;DHT22;10963;50.934;4.668;2022-09-21T16:54:55;18.30;99.90
21602;DHT22;10963;50.934;4.668;2022-09-21T16:57:23;18.30;99.90
21602;DHT22;10963;50.934;4.668;2022-09-21T16:59:50;18.20;99.90
21602;DHT22;10963;50.934;4.668;2022-09-21T17:02:17;18.10;99.90
21602;DHT22;10963;50.934;4.668;2022-09-21T17:04:43;17.90;99.90
21602;DHT22;10963;50.934;4.668;2022-09-21T17:07:15;17.90;99.90
21602;DHT22;10963;50.934;4.668;2022-09-21T17:09:47;17.80;99.90
21602;DHT22;10963;50.934;4.668;2022-09-21T17:12:15;17.60;99.90
21602;DHT22;10963;50.934;4.668;2022-09-21T17:14:42;17.60;99.90
21602;DHT22;10963;50.934;4.668;2022-09-21T17:17:21;17.40;99.90
21602;DHT22;10963;50.934;4.668;2022-09-21T17:19:48;17.40;99.90
21602;DHT22;10963;50.934;4.668;2022-09-21T17:22:19;17.20;99.90
21602;DHT22;10963;50.934;4.668;2022-09-21T17:24:48;17.10;99.90
21602;DHT22;10963;50.934;4.668;2022-09-21T17:27:17;17.00;99.90
21602;DHT22;10963;50.934;4.668;2022-09-21T17:29:44;16.70;99.90
21602;DHT22;10963;50.934;4.668;2022-09-21T17:32:20;16.50;99.90
21602;DHT22;10963;50.934;4.668;2022-09-21T17:38:08;16.20;99.90
21602;DHT22;10963;50.934;4.668;2022-09-21T17:40:37;16.10;99.90
21602;DHT22;10963;50.934;4.668;2022-09-21T17:43:15;16.00;99.90
21602;DHT22;10963;50.934;4.668;2022-09-21T17:45:55;16.00;99.90
21602;DHT22;10963;50.934;4.668;2022-09-21T17:48:25;16.00;99.90
21602;DHT22;10963;50.934;4.668;2022-09-21T17:50:54;15.90;99.90
21602;DHT22;10963;50.934;4.668;2022-09-21T17:53:23;15.90;99.90
21602;DHT22;10963;50.934;4.668;2022-09-21T17:56:13;15.80;99.90
21602;DHT22;10963;50.934;4.668;2022-09-21T17:58:54;15.70;99.90
21602;DHT22;10963;50.934;4.668;2022-09-21T18:01:35;15.70;99.90
21602;DHT22;10963;50.934;4.668;2022-09-21T18:04:05;15.60;99.90
21602;DHT22;10963;50.934;4.668;2022-09-21T18:06:34;15.50;99.90
21602;DHT22;10963;50.934;4.668;2022-09-21T18:09:01;15.40;99.90
21602;DHT22;10963;50.934;4.668;2022-09-21T18:12:00;15.40;99.90
21602;DHT22;10963;50.934;4.668;2022-09-21T18:17:31;15.10;99.90
21602;DHT22;10963;50.934;4.668;2022-09-21T18:20:18;15.00;99.90
21602;DHT22;10963;50.934;4.668;2022-09-21T18:22:56;14.90;99.90
21602;DHT22;10963;50.934;4.668;2022-09-21T18:25:32;14.90;99.90
21602;DHT22;10963;50.934;4.668;2022-09-21T18:28:10;14.80;99.90
21602;DHT22;10963;50.934;4.668;2022-09-21T18:30:41;14.60;99.90
21602;DHT22;10963;50.934;4.668;2022-09-21T18:33:26;14.60;99.90
21602;DHT22;10963;50.934;4.668;2022-09-21T18:35:58;14.40;99.90
21602;DHT22;10963;50.934;4.668;2022-09-21T18:44:51;14.40;99.90
21602;DHT22;10963;50.934;4.668;2022-09-21T18:47:47;14.40;99.90
21602;DHT22;10963;50.934;4.668;2022-09-21T18:50:29;14.30;99.90
21602;DHT22;10963;50.934;4.668;2022-09-21T18:53:07;14.10;99.90
21602;DHT22;10963;50.934;4.668;2022-09-21T18:55:37;14.00;99.90
21602;DHT22;10963;50.934;4.668;2022-09-21T18:58:05;13.80;99.90
21602;DHT22;10963;50.934;4.668;2022-09-21T19:00:32;13.80;99.90
21602;DHT22;10963;50.934;4.668;2022-09-21T19:03:12;13.80;99.90
21602;DHT22;10963;50.934;4.668;2022-09-21T19:09:28;13.90;99.90
21602;DHT22;10963;50.934;4.668;2022-09-21T19:15:30;13.90;99.90